sensor_id;sensor_type;location;lat;lon;timestamp;P1;durP1;ratioP1;P2;durP2;ratioP2
74894;SDS011;63447;49.446;8.666;2023-04-03T00:01:44;4.63;;;2.30;;
74894;SDS011;63447;49.446;8.666;2023-04-03T00:06:37;4.93;;;2.05;;
74894;SDS011;63447;49.446;8.666;2023-04-03T00:09:04;3.70;;;1.80;;
74894;SDS011;63447;49.446;8.666;2023-04-03T00:11:30;4.28;;;1.92;;
74894;SDS011;63447;49.446;8.666;2023-04-03T00:13:57;4.55;;;1.98;;
74894;SDS011;63447;49.446;8.666;2023-04-03T00:18:48;4.43;;;2.00;;
74894;SDS011;63447;49.446;8.666;2023-04-03T00:21:13;4.40;;;2.00;;
74894;SDS011;63447;49.446;8.666;2023-04-03T00:23:40;4.95;;;2.15;;
74894;SDS011;63447;49.446;8.666;2023-04-03T00:26:08;4.85;;;2.20;;
74894;SDS011;63447;49.446;8.666;2023-04-03T00:30:58;5.23;;;2.20;;
74894;SDS011;63447;49.446;8.666;2023-04-03T00:35:49;5.18;;;1.88;;
74894;SDS011;63447;49.446;8.666;2023-04-03T00:38:15;5.10;;;2.17;;
74894;SDS011;63447;49.446;8.666;2023-04-03T00:40:42;5.20;;;1.98;;
74894;SDS011;63447;49.446;8.666;2023-04-03T00:43:27;4.55;;;1.90;;
74894;SDS011;63447;49.446;8.666;2023-04-03T00:45:53;5.38;;;2.20;;
74894;SDS011;63447;49.446;8.666;2023-04-03T00:50:50;5.07;;;2.05;;
74894;SDS011;63447;49.446;8.666;2023-04-03T00:53:23;6.10;;;2.40;;
74894;SDS011;63447;49.446;8.666;2023-04-03T00:55:52;6.20;;;2.13;;
74894;SDS011;63447;49.446;8.666;2023-04-03T00:58:26;4.78;;;2.10;;
74894;SDS011;63447;49.446;8.666;2023-04-03T01:01:03;4.10;;;1.90;;
74894;SDS011;63447;49.446;8.666;2023-04-03T01:03:33;6.38;;;2.00;;
74894;SDS011;63447;49.446;8.666;2023-04-03T01:05:58;4.63;;;1.98;;
74894;SDS011;63447;49.446;8.666;2023-04-03T01:08:24;7.15;;;2.45;;
74894;SDS011;63447;49.446;8.666;2023-04-03T01:13:19;4.93;;;2.13;;
74894;SDS011;63447;49.446;8.666;2023-04-03T01:15:48;5.00;;;1.90;;
74894;SDS011;63447;49.446;8.666;2023-04-03T01:18:13;4.78;;;1.90;;
74894;SDS011;63447;49.446;8.666;2023-04-03T01:23:32;5.05;;;2.10;;
74894;SDS011;63447;49.446;8.666;2023-04-03T01:26:32;3.92;;;1.55;;
74894;SDS011;63447;49.446;8.666;2023-04-03T01:31:25;5.53;;;1.80;;
74894;SDS011;63447;49.446;8.666;2023-04-03T01:33:56;5.70;;;2.20;;
74894;SDS011;63447;49.446;8.666;2023-04-03T01:36:29;5.82;;;2.22;;
74894;SDS011;63447;49.446;8.666;2023-04-03T01:38:56;3.90;;;1.60;;
74894;SDS011;63447;49.446;8.666;2023-04-03T01:41:25;5.75;;;2.10;;
74894;SDS011;63447;49.446;8.666;2023-04-03T01:43:51;4.32;;;2.03;;
74894;SDS011;63447;49.446;8.666;2023-04-03T01:46:19;5.43;;;1.92;;
74894;SDS011;63447;49.446;8.666;2023-04-03T01:48:45;4.47;;;1.92;;
74894;SDS011;63447;49.446;8.666;2023-04-03T01:51:10;4.88;;;2.13;;
74894;SDS011;63447;49.446;8.666;2023-04-03T01:53:36;4.20;;;1.80;;
74894;SDS011;63447;49.446;8.666;2023-04-03T01:56:07;5.57;;;2.00;;
74894;SDS011;63447;49.446;8.666;2023-04-03T01:58:32;4.47;;;1.80;;
74894;SDS011;63447;49.446;8.666;2023-04-03T02:00:58;5.82;;;2.03;;
74894;SDS011;63447;49.446;8.666;2023-04-03T02:03:26;4.18;;;1.90;;
74894;SDS011;63447;49.446;8.666;2023-04-03T02:05:54;4.90;;;2.17;;
74894;SDS011;63447;49.446;8.666;2023-04-03T02:08:20;4.70;;;1.92;;
74894;SDS011;63447;49.446;8.666;2023-04-03T02:10:48;4.35;;;1.95;;
74894;SDS011;63447;49.446;8.666;2023-04-03T02:13:14;6.35;;;2.22;;
74894;SDS011;63447;49.446;8.666;2023-04-03T02:15:40;5.03;;;1.98;;
74894;SDS011;63447;49.446;8.666;2023-04-03T02:18:06;4.85;;;1.83;;
74894;SDS011;63447;49.446;8.666;2023-04-03T02:20:32;3.55;;;1.73;;
74894;SDS011;63447;49.446;8.666;2023-04-03T02:23:00;4.75;;;2.03;;
74894;SDS011;63447;49.446;8.666;2023-04-03T02:25:25;4.45;;;1.80;;
74894;SDS011;63447;49.446;8.666;2023-04-03T02:27:51;4.53;;;1.77;;
74894;SDS011;63447;49.446;8.666;2023-04-03T02:30:19;4.72;;;1.67;;
74894;SDS011;63447;49.446;8.666;2023-04-03T02:32:47;4.88;;;1.90;;
74894;SDS011;63447;49.446;8.666;2023-04-03T02:35:15;4.32;;;1.90;;
74894;SDS011;63447;49.446;8.666;2023-04-03T02:37:40;4.10;;;1.90;;
74894;SDS011;63447;49.446;8.666;2023-04-03T02:40:06;4.18;;;1.77;;
74894;SDS011;63447;49.446;8.666;2023-04-03T02:44:57;4.37;;;1.73;;
74894;SDS011;63447;49.446;8.666;2023-04-03T02:47:22;4.47;;;2.00;;
74894;SDS011;63447;49.446;8.666;2023-04-03T02:49:48;4.30;;;1.90;;
74894;SDS011;63447;49.446;8.666;2023-04-03T02:52:17;7.97;;;2.20;;
74894;SDS011;63447;49.446;8.666;2023-04-03T02:54:43;4.03;;;1.90;;
74894;SDS011;63447;49.446;8.666;2023-04-03T02:57:12;4.22;;;1.85;;
74894;SDS011;63447;49.446;8.666;2023-04-03T02:59:40;3.92;;;1.60;;
74894;SDS011;63447;49.446;8.666;2023-04-03T03:02:13;4.00;;;1.63;;
74894;SDS011;63447;49.446;8.666;2023-04-03T03:04:38;4.85;;;2.00;;
74894;SDS011;63447;49.446;8.666;2023-04-03T03:07:05;5.25;;;1.45;;
74894;SDS011;63447;49.446;8.666;2023-04-03T03:09:31;4.80;;;1.63;;
74894;SDS011;63447;49.446;8.666;2023-04-03T03:11:59;4.97;;;1.83;;
74894;SDS011;63447;49.446;8.666;2023-04-03T03:14:24;4.17;;;1.77;;
74894;SDS011;63447;49.446;8.666;2023-04-03T03:16:49;5.60;;;1.70;;
74894;SDS011;63447;49.446;8.666;2023-04-03T03:19:17;4.15;;;1.58;;
74894;SDS011;63447;49.446;8.666;2023-04-03T03:21:45;4.15;;;1.60;;
74894;SDS011;63447;49.446;8.666;2023-04-03T03:24:10;3.95;;;1.58;;
74894;SDS011;63447;49.446;8.666;2023-04-03T03:26:36;4.25;;;1.80;;
74894;SDS011;63447;49.446;8.666;2023-04-03T03:29:04;5.50;;;1.85;;
74894;SDS011;63447;49.446;8.666;2023-04-03T03:31:32;4.93;;;1.70;;
74894;SDS011;63447;49.446;8.666;2023-04-03T03:34:00;4.45;;;1.80;;
74894;SDS011;63447;49.446;8.666;2023-04-03T03:36:25;4.03;;;1.67;;
74894;SDS011;63447;49.446;8.666;2023-04-03T03:38:51;4.73;;;1.83;;
74894;SDS011;63447;49.446;8.666;2023-04-03T03:41:16;4.40;;;1.50;;
74894;SDS011;63447;49.446;8.666;2023-04-03T03:43:46;3.97;;;1.73;;
74894;SDS011;63447;49.446;8.666;2023-04-03T03:46:11;4.63;;;1.85;;
74894;SDS011;63447;49.446;8.666;2023-04-03T03:48:37;3.63;;;1.50;;
74894;SDS011;63447;49.446;8.666;2023-04-03T03:51:02;5.43;;;1.63;;
74894;SDS011;63447;49.446;8.666;2023-04-03T03:53:27;4.13;;;1.33;;
74894;SDS011;63447;49.446;8.666;2023-04-03T03:55:55;4.40;;;1.80;;
74894;SDS011;63447;49.446;8.666;2023-04-03T03:58:20;4.90;;;1.65;;
74894;SDS011;63447;49.446;8.666;2023-04-03T04:00:45;3.73;;;1.50;;
74894;SDS011;63447;49.446;8.666;2023-04-03T04:03:11;4.35;;;1.80;;
74894;SDS011;63447;49.446;8.666;2023-04-03T04:05:39;5.00;;;2.30;;
74894;SDS011;63447;49.446;8.666;2023-04-03T04:08:04;4.30;;;1.83;;
74894;SDS011;63447;49.446;8.666;2023-04-03T04:10:32;5.40;;;1.80;;
74894;SDS011;63447;49.446;8.666;2023-04-03T04:12:58;3.88;;;1.52;;
74894;SDS011;63447;49.446;8.666;2023-04-03T04:15:27;5.93;;;1.90;;
74894;SDS011;63447;49.446;8.666;2023-04-03T04:17:52;4.78;;;1.80;;
74894;SDS011;63447;49.446;8.666;2023-04-03T04:20:18;4.22;;;1.63;;
74894;SDS011;63447;49.446;8.666;2023-04-03T04:22:43;4.13;;;1.88;;
74894;SDS011;63447;49.446;8.666;2023-04-03T04:25:09;4.80;;;1.77;;
74894;SDS011;63447;49.446;8.666;2023-04-03T04:27:37;5.07;;;2.03;;
74894;SDS011;63447;49.446;8.666;2023-04-03T04:30:03;3.28;;;1.45;;
74894;SDS011;63447;49.446;8.666;2023-04-03T04:32:29;5.50;;;2.03;;
74894;SDS011;63447;49.446;8.666;2023-04-03T04:34:57;4.63;;;2.05;;
74894;SDS011;63447;49.446;8.666;2023-04-03T04:37:25;5.13;;;1.90;;
74894;SDS011;63447;49.446;8.666;2023-04-03T04:39:53;4.13;;;1.63;;
74894;SDS011;63447;49.446;8.666;2023-04-03T04:42:20;5.25;;;1.75;;
74894;SDS011;63447;49.446;8.666;2023-04-03T04:44:47;5.38;;;1.83;;
74894;SDS011;63447;49.446;8.666;2023-04-03T04:47:15;4.70;;;1.55;;
74894;SDS011;63447;49.446;8.666;2023-04-03T04:49:41;5.00;;;1.90;;
74894;SDS011;63447;49.446;8.666;2023-04-03T04:52:08;4.33;;;1.80;;
74894;SDS011;63447;49.446;8.666;2023-04-03T04:54:34;4.13;;;1.80;;
74894;SDS011;63447;49.446;8.666;2023-04-03T04:57:04;6.03;;;1.90;;
74894;SDS011;63447;49.446;8.666;2023-04-03T04:59:32;4.47;;;1.90;;
74894;SDS011;63447;49.446;8.666;2023-04-03T05:04:25;4.75;;;2.08;;
74894;SDS011;63447;49.446;8.666;2023-04-03T05:06:50;5.53;;;1.93;;
74894;SDS011;63447;49.446;8.666;2023-04-03T05:09:18;4.25;;;1.90;;
74894;SDS011;63447;49.446;8.666;2023-04-03T05:11:45;5.45;;;2.25;;
74894;SDS011;63447;49.446;8.666;2023-04-03T05:14:18;5.55;;;2.40;;
74894;SDS011;63447;49.446;8.666;2023-04-03T05:16:43;5.47;;;2.17;;
74894;SDS011;63447;49.446;8.666;2023-04-03T05:19:11;6.72;;;2.63;;
74894;SDS011;63447;49.446;8.666;2023-04-03T05:21:36;5.67;;;2.23;;
74894;SDS011;63447;49.446;8.666;2023-04-03T05:24:04;5.88;;;2.75;;
74894;SDS011;63447;49.446;8.666;2023-04-03T05:26:34;4.90;;;2.05;;
74894;SDS011;63447;49.446;8.666;2023-04-03T05:28:59;4.40;;;2.00;;
74894;SDS011;63447;49.446;8.666;2023-04-03T05:31:29;6.80;;;1.98;;
74894;SDS011;63447;49.446;8.666;2023-04-03T05:33:57;5.57;;;2.30;;
74894;SDS011;63447;49.446;8.666;2023-04-03T05:36:25;5.70;;;2.28;;
74894;SDS011;63447;49.446;8.666;2023-04-03T05:38:53;5.82;;;2.63;;
74894;SDS011;63447;49.446;8.666;2023-04-03T05:41:23;5.95;;;1.98;;
74894;SDS011;63447;49.446;8.666;2023-04-03T05:43:48;4.70;;;2.13;;
74894;SDS011;63447;49.446;8.666;2023-04-03T05:46:15;5.57;;;2.35;;
74894;SDS011;63447;49.446;8.666;2023-04-03T05:48:42;6.50;;;2.58;;
74894;SDS011;63447;49.446;8.666;2023-04-03T05:51:09;5.38;;;2.50;;
74894;SDS011;63447;49.446;8.666;2023-04-03T05:53:40;5.38;;;2.60;;
74894;SDS011;63447;49.446;8.666;2023-04-03T05:56:06;5.07;;;2.22;;
74894;SDS011;63447;49.446;8.666;2023-04-03T05:58:31;6.05;;;2.85;;
74894;SDS011;63447;49.446;8.666;2023-04-03T06:00:59;6.00;;;2.55;;
74894;SDS011;63447;49.446;8.666;2023-04-03T06:05:50;5.97;;;2.72;;
74894;SDS011;63447;49.446;8.666;2023-04-03T06:08:15;5.95;;;2.70;;
74894;SDS011;63447;49.446;8.666;2023-04-03T06:10:46;8.10;;;2.38;;
74894;SDS011;63447;49.446;8.666;2023-04-03T06:13:13;5.82;;;2.47;;
74894;SDS011;63447;49.446;8.666;2023-04-03T06:15:41;7.43;;;3.08;;
74894;SDS011;63447;49.446;8.666;2023-04-03T06:20:32;6.15;;;2.80;;
74894;SDS011;63447;49.446;8.666;2023-04-03T06:22:57;5.07;;;2.30;;
74894;SDS011;63447;49.446;8.666;2023-04-03T06:25:23;5.90;;;2.42;;
74894;SDS011;63447;49.446;8.666;2023-04-03T06:27:48;7.45;;;2.58;;
74894;SDS011;63447;49.446;8.666;2023-04-03T06:30:13;6.47;;;2.83;;
74894;SDS011;63447;49.446;8.666;2023-04-03T06:35:07;7.45;;;2.70;;
74894;SDS011;63447;49.446;8.666;2023-04-03T06:37:36;4.80;;;2.47;;
74894;SDS011;63447;49.446;8.666;2023-04-03T06:40:04;5.00;;;2.38;;
74894;SDS011;63447;49.446;8.666;2023-04-03T06:42:30;6.88;;;2.58;;
74894;SDS011;63447;49.446;8.666;2023-04-03T06:47:21;4.87;;;2.43;;
74894;SDS011;63447;49.446;8.666;2023-04-03T06:49:46;5.53;;;2.50;;
74894;SDS011;63447;49.446;8.666;2023-04-03T06:54:38;5.15;;;2.22;;
74894;SDS011;63447;49.446;8.666;2023-04-03T06:57:03;5.30;;;2.40;;
74894;SDS011;63447;49.446;8.666;2023-04-03T07:01:57;5.68;;;2.22;;
74894;SDS011;63447;49.446;8.666;2023-04-03T07:04:24;4.93;;;2.20;;
74894;SDS011;63447;49.446;8.666;2023-04-03T07:06:52;5.18;;;2.45;;
74894;SDS011;63447;49.446;8.666;2023-04-03T07:11:45;6.07;;;2.63;;
74894;SDS011;63447;49.446;8.666;2023-04-03T07:14:13;4.53;;;2.15;;
74894;SDS011;63447;49.446;8.666;2023-04-03T07:16:41;4.75;;;2.28;;
74894;SDS011;63447;49.446;8.666;2023-04-03T07:19:09;7.03;;;2.35;;
74894;SDS011;63447;49.446;8.666;2023-04-03T07:21:38;5.55;;;2.28;;
74894;SDS011;63447;49.446;8.666;2023-04-03T07:26:28;6.23;;;2.20;;
74894;SDS011;63447;49.446;8.666;2023-04-03T07:31:19;6.13;;;2.10;;
74894;SDS011;63447;49.446;8.666;2023-04-03T07:36:11;5.22;;;2.13;;
74894;SDS011;63447;49.446;8.666;2023-04-03T07:38:40;5.13;;;2.28;;
74894;SDS011;63447;49.446;8.666;2023-04-03T07:43:31;5.35;;;2.13;;
74894;SDS011;63447;49.446;8.666;2023-04-03T07:45:59;3.95;;;1.80;;
74894;SDS011;63447;49.446;8.666;2023-04-03T07:48:25;7.72;;;2.50;;
74894;SDS011;63447;49.446;8.666;2023-04-03T07:50:51;7.43;;;2.15;;
74894;SDS011;63447;49.446;8.666;2023-04-03T07:53:17;5.63;;;1.92;;
74894;SDS011;63447;49.446;8.666;2023-04-03T07:58:12;4.78;;;1.80;;
74894;SDS011;63447;49.446;8.666;2023-04-03T08:00:42;4.88;;;1.75;;
74894;SDS011;63447;49.446;8.666;2023-04-03T08:03:08;6.07;;;1.90;;
74894;SDS011;63447;49.446;8.666;2023-04-03T08:05:38;5.38;;;1.98;;
74894;SDS011;63447;49.446;8.666;2023-04-03T08:08:06;4.03;;;1.70;;
74894;SDS011;63447;49.446;8.666;2023-04-03T08:10:32;5.43;;;1.90;;
74894;SDS011;63447;49.446;8.666;2023-04-03T08:13:01;4.32;;;1.63;;
74894;SDS011;63447;49.446;8.666;2023-04-03T08:15:26;5.50;;;1.73;;
74894;SDS011;63447;49.446;8.666;2023-04-03T08:17:52;5.07;;;1.60;;
74894;SDS011;63447;49.446;8.666;2023-04-03T08:20:17;3.72;;;1.52;;
74894;SDS011;63447;49.446;8.666;2023-04-03T08:22:43;4.88;;;1.50;;
74894;SDS011;63447;49.446;8.666;2023-04-03T08:25:08;5.50;;;1.57;;
74894;SDS011;63447;49.446;8.666;2023-04-03T08:27:36;3.80;;;1.50;;
74894;SDS011;63447;49.446;8.666;2023-04-03T08:30:02;5.28;;;2.03;;
74894;SDS011;63447;49.446;8.666;2023-04-03T08:32:29;4.10;;;1.40;;
74894;SDS011;63447;49.446;8.666;2023-04-03T08:34:54;4.50;;;1.40;;
74894;SDS011;63447;49.446;8.666;2023-04-03T08:37:22;4.32;;;1.40;;
74894;SDS011;63447;49.446;8.666;2023-04-03T08:39:50;4.70;;;1.40;;
74894;SDS011;63447;49.446;8.666;2023-04-03T08:50:28;4.82;;;1.33;;
74894;SDS011;63447;49.446;8.666;2023-04-03T08:52:58;4.05;;;1.38;;
74894;SDS011;63447;49.446;8.666;2023-04-03T08:55:33;3.65;;;1.40;;
74894;SDS011;63447;49.446;8.666;2023-04-03T09:00:46;3.97;;;1.40;;
74894;SDS011;63447;49.446;8.666;2023-04-03T09:03:15;5.57;;;1.55;;
74894;SDS011;63447;49.446;8.666;2023-04-03T09:05:56;4.32;;;1.27;;
74894;SDS011;63447;49.446;8.666;2023-04-03T09:08:30;3.22;;;1.25;;
74894;SDS011;63447;49.446;8.666;2023-04-03T09:11:12;5.63;;;1.50;;
74894;SDS011;63447;49.446;8.666;2023-04-03T09:22:38;3.45;;;1.17;;
74894;SDS011;63447;49.446;8.666;2023-04-03T09:28:08;3.25;;;1.15;;
74894;SDS011;63447;49.446;8.666;2023-04-03T09:30:35;3.92;;;1.23;;
74894;SDS011;63447;49.446;8.666;2023-04-03T09:33:05;4.45;;;1.30;;
74894;SDS011;63447;49.446;8.666;2023-04-03T09:35:34;5.47;;;1.40;;
74894;SDS011;63447;49.446;8.666;2023-04-03T09:40:45;5.25;;;1.40;;
74894;SDS011;63447;49.446;8.666;2023-04-03T09:43:19;5.22;;;1.40;;
74894;SDS011;63447;49.446;8.666;2023-04-03T09:45:48;5.30;;;1.40;;
74894;SDS011;63447;49.446;8.666;2023-04-03T09:56:01;4.30;;;1.33;;
74894;SDS011;63447;49.446;8.666;2023-04-03T09:58:38;3.72;;;1.30;;
74894;SDS011;63447;49.446;8.666;2023-04-03T10:01:20;2.90;;;1.10;;
74894;SDS011;63447;49.446;8.666;2023-04-03T10:04:02;3.60;;;1.00;;
74894;SDS011;63447;49.446;8.666;2023-04-03T10:06:31;4.55;;;1.10;;
74894;SDS011;63447;49.446;8.666;2023-04-03T10:09:01;4.55;;;1.23;;
74894;SDS011;63447;49.446;8.666;2023-04-03T10:11:30;2.97;;;0.90;;
74894;SDS011;63447;49.446;8.666;2023-04-03T10:13:59;4.30;;;1.25;;
74894;SDS011;63447;49.446;8.666;2023-04-03T10:16:37;3.28;;;1.00;;
74894;SDS011;63447;49.446;8.666;2023-04-03T10:24:47;4.95;;;1.35;;
74894;SDS011;63447;49.446;8.666;2023-04-03T10:27:17;5.88;;;1.27;;
74894;SDS011;63447;49.446;8.666;2023-04-03T10:29:53;5.57;;;1.40;;
74894;SDS011;63447;49.446;8.666;2023-04-03T10:41:04;4.20;;;1.10;;
74894;SDS011;63447;49.446;8.666;2023-04-03T10:51:50;3.75;;;1.13;;
74894;SDS011;63447;49.446;8.666;2023-04-03T10:54:32;4.82;;;1.40;;
74894;SDS011;63447;49.446;8.666;2023-04-03T10:57:04;3.83;;;1.25;;
74894;SDS011;63447;49.446;8.666;2023-04-03T10:59:44;3.20;;;1.20;;
74894;SDS011;63447;49.446;8.666;2023-04-03T11:02:27;4.93;;;2.00;;
74894;SDS011;63447;49.446;8.666;2023-04-03T11:05:02;3.97;;;1.30;;
74894;SDS011;63447;49.446;8.666;2023-04-03T11:07:37;4.15;;;1.30;;
74894;SDS011;63447;49.446;8.666;2023-04-03T11:10:17;4.75;;;1.23;;
74894;SDS011;63447;49.446;8.666;2023-04-03T11:12:46;3.65;;;1.23;;
74894;SDS011;63447;49.446;8.666;2023-04-03T11:15:21;3.92;;;1.10;;
74894;SDS011;63447;49.446;8.666;2023-04-03T11:17:50;3.50;;;1.20;;
74894;SDS011;63447;49.446;8.666;2023-04-03T11:20:30;4.00;;;1.40;;
74894;SDS011;63447;49.446;8.666;2023-04-03T11:23:02;3.80;;;1.25;;
74894;SDS011;63447;49.446;8.666;2023-04-03T11:25:31;4.63;;;1.08;;
74894;SDS011;63447;49.446;8.666;2023-04-03T11:28:03;3.58;;;1.35;;
74894;SDS011;63447;49.446;8.666;2023-04-03T11:36:24;4.07;;;1.30;;
74894;SDS011;63447;49.446;8.666;2023-04-03T11:38:56;4.28;;;1.20;;
74894;SDS011;63447;49.446;8.666;2023-04-03T11:41:26;4.28;;;1.20;;
74894;SDS011;63447;49.446;8.666;2023-04-03T11:44:04;4.15;;;1.23;;
74894;SDS011;63447;49.446;8.666;2023-04-03T11:47:01;5.22;;;1.40;;
74894;SDS011;63447;49.446;8.666;2023-04-03T12:08:30;4.15;;;1.52;;
74894;SDS011;63447;49.446;8.666;2023-04-03T12:37:30;4.25;;;1.52;;
74894;SDS011;63447;49.446;8.666;2023-04-03T12:42:52;4.78;;;1.50;;
74894;SDS011;63447;49.446;8.666;2023-04-03T12:45:23;4.15;;;1.33;;
74894;SDS011;63447;49.446;8.666;2023-04-03T12:47:54;4.32;;;1.40;;
74894;SDS011;63447;49.446;8.666;2023-04-03T12:50:24;3.72;;;1.30;;
74894;SDS011;63447;49.446;8.666;2023-04-03T12:53:05;4.65;;;1.52;;
74894;SDS011;63447;49.446;8.666;2023-04-03T12:55:38;4.32;;;1.25;;
74894;SDS011;63447;49.446;8.666;2023-04-03T13:00:41;3.72;;;1.33;;
74894;SDS011;63447;49.446;8.666;2023-04-03T13:03:18;5.00;;;1.48;;
74894;SDS011;63447;49.446;8.666;2023-04-03T13:05:47;4.88;;;1.60;;
74894;SDS011;63447;49.446;8.666;2023-04-03T13:08:15;4.68;;;1.50;;
74894;SDS011;63447;49.446;8.666;2023-04-03T13:11:03;3.67;;;1.40;;
74894;SDS011;63447;49.446;8.666;2023-04-03T13:13:33;4.55;;;1.50;;
74894;SDS011;63447;49.446;8.666;2023-04-03T13:16:07;3.97;;;1.30;;
74894;SDS011;63447;49.446;8.666;2023-04-03T13:18:35;4.88;;;1.75;;
74894;SDS011;63447;49.446;8.666;2023-04-03T13:21:20;4.68;;;1.45;;
74894;SDS011;63447;49.446;8.666;2023-04-03T13:23:52;4.18;;;1.55;;
74894;SDS011;63447;49.446;8.666;2023-04-03T13:26:22;5.75;;;1.90;;
74894;SDS011;63447;49.446;8.666;2023-04-03T13:28:51;5.05;;;1.52;;
74894;SDS011;63447;49.446;8.666;2023-04-03T13:34:18;4.55;;;1.50;;
74894;SDS011;63447;49.446;8.666;2023-04-03T13:37:06;4.38;;;1.60;;
74894;SDS011;63447;49.446;8.666;2023-04-03T13:39:34;3.95;;;1.25;;
74894;SDS011;63447;49.446;8.666;2023-04-03T13:42:14;4.40;;;1.83;;
74894;SDS011;63447;49.446;8.666;2023-04-03T13:47:41;4.72;;;1.60;;
74894;SDS011;63447;49.446;8.666;2023-04-03T13:50:14;3.88;;;1.42;;
74894;SDS011;63447;49.446;8.666;2023-04-03T13:55:20;4.22;;;1.55;;
74894;SDS011;63447;49.446;8.666;2023-04-03T14:00:47;4.35;;;1.35;;
74894;SDS011;63447;49.446;8.666;2023-04-03T14:05:53;4.60;;;1.42;;
74894;SDS011;63447;49.446;8.666;2023-04-03T14:08:21;5.10;;;1.30;;
74894;SDS011;63447;49.446;8.666;2023-04-03T14:10:50;3.83;;;1.38;;
74894;SDS011;63447;49.446;8.666;2023-04-03T14:13:18;4.53;;;1.50;;
74894;SDS011;63447;49.446;8.666;2023-04-03T14:15:45;5.32;;;1.30;;
74894;SDS011;63447;49.446;8.666;2023-04-03T14:18:16;3.92;;;1.45;;
74894;SDS011;63447;49.446;8.666;2023-04-03T14:20:44;5.05;;;1.33;;
74894;SDS011;63447;49.446;8.666;2023-04-03T14:23:12;4.47;;;1.80;;
74894;SDS011;63447;49.446;8.666;2023-04-03T14:25:37;3.95;;;1.30;;
74894;SDS011;63447;49.446;8.666;2023-04-03T14:28:12;4.88;;;1.40;;
74894;SDS011;63447;49.446;8.666;2023-04-03T14:30:41;4.35;;;1.30;;
74894;SDS011;63447;49.446;8.666;2023-04-03T14:33:06;4.10;;;1.65;;
74894;SDS011;63447;49.446;8.666;2023-04-03T14:35:37;5.30;;;1.60;;
74894;SDS011;63447;49.446;8.666;2023-04-03T14:38:12;3.95;;;1.30;;
74894;SDS011;63447;49.446;8.666;2023-04-03T14:40:52;4.30;;;1.33;;
74894;SDS011;63447;49.446;8.666;2023-04-03T14:43:19;4.47;;;1.52;;
74894;SDS011;63447;49.446;8.666;2023-04-03T14:45:45;5.10;;;1.60;;
74894;SDS011;63447;49.446;8.666;2023-04-03T14:48:15;3.85;;;1.40;;
74894;SDS011;63447;49.446;8.666;2023-04-03T14:53:15;4.07;;;1.40;;
74894;SDS011;63447;49.446;8.666;2023-04-03T14:55:41;3.60;;;1.20;;
74894;SDS011;63447;49.446;8.666;2023-04-03T14:58:13;3.47;;;1.20;;
74894;SDS011;63447;49.446;8.666;2023-04-03T15:00:40;4.30;;;1.23;;
74894;SDS011;63447;49.446;8.666;2023-04-03T15:03:09;4.05;;;1.48;;
74894;SDS011;63447;49.446;8.666;2023-04-03T15:05:38;5.25;;;1.58;;
74894;SDS011;63447;49.446;8.666;2023-04-03T15:08:03;3.55;;;1.40;;
74894;SDS011;63447;49.446;8.666;2023-04-03T15:10:30;5.70;;;1.40;;
74894;SDS011;63447;49.446;8.666;2023-04-03T15:12:56;4.03;;;1.25;;
74894;SDS011;63447;49.446;8.666;2023-04-03T15:15:22;5.30;;;1.70;;
74894;SDS011;63447;49.446;8.666;2023-04-03T15:17:50;4.20;;;1.58;;
74894;SDS011;63447;49.446;8.666;2023-04-03T15:20:23;4.10;;;1.10;;
74894;SDS011;63447;49.446;8.666;2023-04-03T15:22:50;4.00;;;1.20;;
74894;SDS011;63447;49.446;8.666;2023-04-03T15:25:16;3.85;;;1.27;;
74894;SDS011;63447;49.446;8.666;2023-04-03T15:27:44;3.50;;;1.10;;
74894;SDS011;63447;49.446;8.666;2023-04-03T15:30:13;3.47;;;1.30;;
74894;SDS011;63447;49.446;8.666;2023-04-03T15:32:43;3.45;;;1.25;;
74894;SDS011;63447;49.446;8.666;2023-04-03T15:35:08;3.85;;;1.52;;
74894;SDS011;63447;49.446;8.666;2023-04-03T15:37:36;4.97;;;1.77;;
74894;SDS011;63447;49.446;8.666;2023-04-03T15:40:02;4.93;;;1.50;;
74894;SDS011;63447;49.446;8.666;2023-04-03T15:42:31;3.63;;;1.23;;
74894;SDS011;63447;49.446;8.666;2023-04-03T15:44:57;3.38;;;1.20;;
74894;SDS011;63447;49.446;8.666;2023-04-03T15:47:22;3.70;;;1.33;;
74894;SDS011;63447;49.446;8.666;2023-04-03T15:49:49;3.55;;;1.00;;
74894;SDS011;63447;49.446;8.666;2023-04-03T15:52:14;4.37;;;1.27;;
74894;SDS011;63447;49.446;8.666;2023-04-03T15:54:39;3.67;;;1.27;;
74894;SDS011;63447;49.446;8.666;2023-04-03T15:57:05;3.73;;;1.20;;
74894;SDS011;63447;49.446;8.666;2023-04-03T15:59:32;4.72;;;1.30;;
74894;SDS011;63447;49.446;8.666;2023-04-03T16:01:58;4.53;;;1.70;;
74894;SDS011;63447;49.446;8.666;2023-04-03T16:04:28;4.47;;;1.48;;
74894;SDS011;63447;49.446;8.666;2023-04-03T16:06:55;3.97;;;1.40;;
74894;SDS011;63447;49.446;8.666;2023-04-03T16:09:20;3.30;;;1.20;;
74894;SDS011;63447;49.446;8.666;2023-04-03T16:11:46;4.25;;;1.10;;
74894;SDS011;63447;49.446;8.666;2023-04-03T16:14:11;3.33;;;1.10;;
74894;SDS011;63447;49.446;8.666;2023-04-03T16:16:37;3.88;;;1.05;;
74894;SDS011;63447;49.446;8.666;2023-04-03T16:19:03;5.15;;;1.30;;
74894;SDS011;63447;49.446;8.666;2023-04-03T16:21:31;4.38;;;1.35;;
74894;SDS011;63447;49.446;8.666;2023-04-03T16:24:00;3.42;;;1.20;;
74894;SDS011;63447;49.446;8.666;2023-04-03T16:26:28;3.55;;;1.05;;
74894;SDS011;63447;49.446;8.666;2023-04-03T16:28:54;3.63;;;1.10;;
74894;SDS011;63447;49.446;8.666;2023-04-03T16:31:22;4.47;;;1.20;;
74894;SDS011;63447;49.446;8.666;2023-04-03T16:33:51;4.28;;;1.10;;
74894;SDS011;63447;49.446;8.666;2023-04-03T16:36:16;4.15;;;1.20;;
74894;SDS011;63447;49.446;8.666;2023-04-03T16:38:42;5.43;;;1.60;;
74894;SDS011;63447;49.446;8.666;2023-04-03T16:41:07;5.10;;;1.43;;
74894;SDS011;63447;49.446;8.666;2023-04-03T16:43:33;4.05;;;1.20;;
74894;SDS011;63447;49.446;8.666;2023-04-03T16:46:01;6.32;;;2.90;;
74894;SDS011;63447;49.446;8.666;2023-04-03T16:48:28;3.33;;;1.40;;
74894;SDS011;63447;49.446;8.666;2023-04-03T16:50:54;4.13;;;1.20;;
74894;SDS011;63447;49.446;8.666;2023-04-03T16:53:20;3.95;;;1.30;;
74894;SDS011;63447;49.446;8.666;2023-04-03T16:55:46;4.30;;;1.30;;
74894;SDS011;63447;49.446;8.666;2023-04-03T16:58:14;3.47;;;1.23;;
74894;SDS011;63447;49.446;8.666;2023-04-03T17:00:40;4.20;;;1.30;;
74894;SDS011;63447;49.446;8.666;2023-04-03T17:03:06;3.35;;;1.10;;
74894;SDS011;63447;49.446;8.666;2023-04-03T17:05:34;3.47;;;1.20;;
74894;SDS011;63447;49.446;8.666;2023-04-03T17:08:00;4.03;;;1.38;;
74894;SDS011;63447;49.446;8.666;2023-04-03T17:10:27;3.42;;;1.10;;
74894;SDS011;63447;49.446;8.666;2023-04-03T17:12:53;4.05;;;1.38;;
74894;SDS011;63447;49.446;8.666;2023-04-03T17:15:18;4.78;;;1.30;;
74894;SDS011;63447;49.446;8.666;2023-04-03T17:17:47;4.55;;;1.40;;
74894;SDS011;63447;49.446;8.666;2023-04-03T17:20:14;4.28;;;1.50;;
74894;SDS011;63447;49.446;8.666;2023-04-03T17:22:44;5.90;;;1.67;;
74894;SDS011;63447;49.446;8.666;2023-04-03T17:25:10;4.95;;;1.65;;
74894;SDS011;63447;49.446;8.666;2023-04-03T17:27:39;5.78;;;1.83;;
74894;SDS011;63447;49.446;8.666;2023-04-03T17:30:05;4.07;;;1.35;;
74894;SDS011;63447;49.446;8.666;2023-04-03T17:32:31;4.68;;;1.50;;
74894;SDS011;63447;49.446;8.666;2023-04-03T17:34:56;4.90;;;1.20;;
74894;SDS011;63447;49.446;8.666;2023-04-03T17:37:22;3.30;;;1.23;;
74894;SDS011;63447;49.446;8.666;2023-04-03T17:39:47;4.75;;;1.25;;
74894;SDS011;63447;49.446;8.666;2023-04-03T17:42:12;4.27;;;1.30;;
74894;SDS011;63447;49.446;8.666;2023-04-03T17:44:38;4.23;;;1.27;;
74894;SDS011;63447;49.446;8.666;2023-04-03T17:47:05;4.85;;;1.88;;
74894;SDS011;63447;49.446;8.666;2023-04-03T17:49:33;4.10;;;1.50;;
74894;SDS011;63447;49.446;8.666;2023-04-03T17:52:01;5.40;;;1.67;;
74894;SDS011;63447;49.446;8.666;2023-04-03T17:54:28;5.32;;;1.60;;
74894;SDS011;63447;49.446;8.666;2023-04-03T17:56:54;4.47;;;1.60;;
74894;SDS011;63447;49.446;8.666;2023-04-03T17:59:19;3.97;;;1.57;;